createdAt,value
2022-10-18T00:00:18.616Z,29.621
2022-10-18T00:05:20.260Z,29.617
2022-10-18T00:10:20.262Z,29.618
2022-10-18T00:15:20.278Z,29.619
2022-10-18T00:20:17.281Z,29.616
2022-10-18T00:25:20.270Z,29.614
2022-10-18T00:30:21.757Z,29.613
2022-10-18T00:35:20.258Z,29.607
2022-10-18T00:40:20.253Z,29.607
2022-10-18T00:45:20.247Z,29.610
2022-10-18T00:50:17.307Z,29.607
2022-10-18T00:55:17.292Z,29.605
2022-10-18T01:00:17.293Z,29.606
2022-10-18T01:05:21.770Z,29.604
2022-10-18T01:10:20.285Z,29.600
2022-10-18T01:15:20.298Z,29.601
2022-10-18T01:20:20.293Z,29.598
2022-10-18T01:25:17.311Z,29.599
2022-10-18T01:30:20.401Z,29.596
2022-10-18T01:35:20.302Z,29.598
2022-10-18T01:40:21.656Z,29.593
2022-10-18T01:45:20.313Z,29.591
2022-10-18T01:50:20.266Z,29.590
2022-10-18T01:55:20.286Z,29.587
2022-10-18T02:00:17.305Z,29.589
2022-10-18T02:05:17.338Z,29.588
2022-10-18T02:10:20.305Z,29.586
2022-10-18T02:15:21.836Z,29.586
2022-10-18T02:20:17.308Z,29.587
2022-10-18T02:25:17.360Z,29.589
2022-10-18T02:30:17.337Z,29.591
2022-10-18T02:35:17.396Z,29.587
2022-10-18T02:40:20.316Z,29.585
2022-10-18T02:45:20.312Z,29.585
2022-10-18T02:50:21.698Z,29.580
2022-10-18T02:55:20.379Z,29.577
2022-10-18T03:00:20.317Z,29.576
2022-10-18T03:05:20.315Z,29.576
2022-10-18T03:10:18.315Z,29.578
2022-10-18T03:15:18.352Z,29.580
2022-10-18T03:20:17.370Z,29.579
2022-10-18T03:25:18.786Z,29.573
2022-10-18T03:30:18.366Z,29.567
2022-10-18T03:35:18.296Z,29.566
2022-10-18T03:40:18.388Z,29.565
2022-10-18T03:45:15.414Z,29.559
2022-10-18T03:50:15.369Z,29.560
2022-10-18T03:55:18.374Z,29.559
2022-10-18T04:00:21.146Z,29.562
2022-10-18T04:05:19.634Z,29.564
2022-10-18T04:10:19.638Z,29.565
2022-10-18T04:15:19.624Z,29.565
2022-10-18T04:20:16.623Z,29.568
2022-10-18T04:25:16.636Z,29.566
2022-10-18T04:30:19.614Z,29.560
2022-10-18T04:35:20.938Z,29.557
2022-10-18T04:40:19.610Z,29.554
2022-10-18T04:45:16.619Z,29.551
2022-10-18T04:50:16.645Z,29.551
2022-10-18T04:55:19.641Z,29.547
2022-10-18T05:00:19.726Z,29.548
2022-10-18T05:05:19.614Z,29.550
2022-10-18T05:10:21.104Z,29.546
2022-10-18T05:15:19.609Z,29.546
2022-10-18T05:20:16.707Z,29.539
2022-10-18T05:25:16.642Z,29.540
2022-10-18T05:30:19.655Z,29.548
2022-10-18T05:35:19.594Z,29.539
2022-10-18T05:40:19.663Z,29.542
2022-10-18T05:45:18.096Z,29.541
2022-10-18T05:50:16.669Z,29.539
2022-10-18T05:55:19.663Z,29.539
2022-10-18T06:00:19.668Z,29.539
2022-10-18T06:05:19.669Z,29.544
2022-10-18T06:10:19.646Z,29.545
2022-10-18T06:15:16.706Z,29.545
2022-10-18T06:20:21.139Z,29.545
2022-10-18T06:25:19.708Z,29.549
2022-10-18T06:30:19.642Z,29.548
2022-10-18T06:35:19.700Z,29.551
2022-10-18T06:40:19.644Z,29.546
2022-10-18T06:45:16.694Z,29.541
2022-10-18T06:50:16.692Z,29.537
2022-10-18T06:55:21.205Z,29.538
2022-10-18T07:00:19.666Z,29.531
2022-10-18T07:05:16.625Z,29.531
2022-10-18T07:10:19.687Z,29.535
2022-10-18T07:15:16.681Z,29.529
2022-10-18T07:20:16.701Z,29.526
2022-10-18T07:25:19.699Z,29.525
2022-10-18T07:30:21.197Z,29.528
2022-10-18T07:35:19.704Z,29.522
2022-10-18T07:40:16.555Z,29.519
2022-10-18T07:45:19.691Z,29.520
2022-10-18T07:50:16.700Z,29.516
2022-10-18T07:55:19.701Z,29.517
2022-10-18T08:00:19.765Z,29.521
2022-10-18T08:05:21.367Z,29.520
2022-10-18T08:10:19.742Z,29.527
2022-10-18T08:15:16.728Z,29.524
2022-10-18T08:20:30.456Z,29.527
2022-10-18T08:25:16.714Z,29.525
2022-10-18T08:30:19.817Z,29.529
2022-10-18T08:35:19.745Z,29.527
2022-10-18T08:40:21.180Z,29.539
2022-10-18T08:45:37.542Z,29.539
2022-10-18T08:50:16.732Z,29.543
2022-10-18T08:55:16.738Z,29.547
2022-10-18T09:00:19.745Z,29.547
2022-10-18T09:05:19.758Z,29.549
2022-10-18T09:10:19.748Z,29.549
2022-10-18T09:15:21.180Z,29.550
2022-10-18T09:20:16.783Z,29.551
2022-10-18T09:25:16.773Z,29.551
2022-10-18T09:30:19.734Z,29.550
2022-10-18T09:35:19.732Z,29.552
2022-10-18T09:40:18.937Z,29.549
2022-10-18T09:45:19.743Z,29.546
2022-10-18T09:50:21.298Z,29.545
2022-10-18T09:55:16.769Z,29.543
2022-10-18T10:00:16.792Z,29.539
2022-10-18T10:05:19.764Z,29.539
2022-10-18T10:10:19.735Z,29.539
2022-10-18T10:15:19.755Z,29.531
2022-10-18T10:20:19.760Z,29.529
2022-10-18T10:25:18.229Z,29.524
2022-10-18T10:30:16.832Z,29.529
2022-10-18T10:35:33.875Z,29.526
2022-10-18T10:40:22.898Z,29.525
2022-10-18T10:45:19.747Z,29.524
2022-10-18T10:50:19.766Z,29.522
2022-10-18T10:55:34.938Z,29.522
2022-10-18T11:00:19.984Z,29.526
2022-10-18T11:05:16.809Z,29.520
2022-10-18T11:10:19.824Z,29.521
2022-10-18T11:15:19.832Z,29.527
2022-10-18T11:20:19.781Z,29.532
2022-10-18T11:25:19.795Z,29.533
2022-10-18T11:30:18.207Z,29.531
2022-10-18T11:35:16.857Z,29.528
2022-10-18T11:40:19.822Z,29.528
2022-10-18T11:45:19.879Z,29.534
2022-10-18T11:50:19.811Z,29.532
2022-10-18T11:55:19.750Z,29.530
2022-10-18T12:00:21.329Z,29.527
2022-10-18T12:05:24.880Z,29.523
2022-10-18T12:10:31.430Z,29.527
2022-10-18T12:15:19.803Z,29.527
2022-10-18T12:20:19.832Z,29.529
2022-10-18T12:25:19.773Z,29.531
2022-10-18T12:30:19.835Z,29.533
2022-10-18T12:35:18.213Z,29.534
2022-10-18T12:40:21.493Z,29.537
2022-10-18T12:45:19.830Z,29.538
2022-10-18T12:50:19.856Z,29.534
2022-10-18T12:55:19.776Z,29.536
2022-10-18T13:00:16.867Z,29.538
2022-10-18T13:05:33.566Z,29.536
2022-10-18T13:10:21.334Z,29.537
2022-10-18T13:15:25.693Z,29.536
2022-10-18T13:20:26.029Z,29.532
2022-10-18T13:25:19.825Z,29.536
2022-10-18T13:30:19.820Z,29.535
2022-10-18T13:35:19.850Z,29.533
2022-10-18T13:40:16.837Z,29.533
2022-10-18T13:45:18.415Z,29.533
2022-10-18T13:50:19.885Z,29.534
2022-10-18T13:55:19.905Z,29.536
2022-10-18T14:00:19.881Z,29.537
2022-10-18T14:05:25.058Z,29.536
2022-10-18T14:10:16.929Z,29.535
2022-10-18T14:15:16.856Z,29.538
2022-10-18T14:20:23.004Z,29.540
2022-10-18T14:25:19.860Z,29.544
2022-10-18T14:30:19.859Z,29.541
2022-10-18T14:35:32.172Z,29.539
2022-10-18T14:40:19.895Z,29.540
2022-10-18T14:45:16.932Z,29.540
2022-10-18T14:50:16.887Z,29.540
2022-10-18T14:55:21.357Z,29.537
2022-10-18T15:00:19.944Z,29.536
2022-10-18T15:05:19.893Z,29.540
2022-10-18T15:10:16.895Z,29.541
2022-10-18T15:15:16.896Z,29.541
2022-10-18T15:20:19.916Z,29.536
2022-10-18T15:25:19.918Z,29.535
2022-10-18T15:30:21.288Z,29.536
2022-10-18T15:35:16.866Z,29.534
2022-10-18T15:40:19.889Z,29.535
2022-10-18T15:45:16.928Z,29.534
2022-10-18T15:50:16.909Z,29.539
2022-10-18T15:55:19.931Z,29.538
2022-10-18T16:00:19.920Z,29.537
2022-10-18T16:05:21.478Z,29.539
2022-10-18T16:10:19.890Z,29.542
2022-10-18T16:15:16.834Z,29.540
2022-10-18T16:20:16.951Z,29.541
2022-10-18T16:25:19.927Z,29.541
2022-10-18T16:30:19.928Z,29.542
2022-10-18T16:35:19.911Z,29.541
2022-10-18T16:40:21.483Z,29.537
2022-10-18T16:45:19.953Z,29.537
2022-10-18T16:50:19.942Z,29.542
2022-10-18T16:55:16.966Z,29.540
2022-10-18T17:00:19.909Z,29.540
2022-10-18T17:05:19.947Z,29.537
2022-10-18T17:10:19.962Z,29.534
2022-10-18T17:15:21.313Z,29.536
2022-10-18T17:20:19.952Z,29.536
2022-10-18T17:25:19.926Z,29.537
2022-10-18T17:30:16.970Z,29.538
2022-10-18T17:35:16.965Z,29.541
2022-10-18T17:40:19.938Z,29.538
2022-10-18T17:45:19.947Z,29.542
2022-10-18T17:50:21.326Z,29.541
2022-10-18T17:55:19.921Z,29.542
2022-10-18T18:00:16.995Z,29.542
2022-10-18T18:05:16.975Z,29.546
2022-10-18T18:10:19.976Z,29.543
2022-10-18T18:15:19.973Z,29.545
2022-10-18T18:20:19.966Z,29.546
2022-10-18T18:25:21.363Z,29.545
2022-10-18T18:30:17.012Z,29.546
2022-10-18T18:35:16.984Z,29.548
2022-10-18T18:40:20.049Z,29.548
2022-10-18T18:45:19.958Z,29.547
2022-10-18T18:50:19.978Z,29.552
2022-10-18T18:55:36.417Z,29.553
2022-10-18T19:00:19.952Z,29.552
2022-10-18T19:05:17.078Z,29.555
2022-10-18T19:10:17.019Z,29.559
2022-10-18T19:15:20.025Z,29.562
2022-10-18T19:20:19.989Z,29.563
2022-10-18T19:25:22.189Z,29.567
2022-10-18T19:30:19.998Z,29.568
2022-10-18T19:35:19.996Z,29.568
2022-10-18T19:40:19.988Z,29.570
2022-10-18T19:45:19.988Z,29.573
2022-10-18T19:50:20.038Z,29.573
2022-10-18T19:55:19.993Z,29.571
2022-10-18T20:00:19.418Z,29.570
2022-10-18T20:05:17.027Z,29.571
2022-10-18T20:10:21.421Z,29.572
2022-10-18T20:15:20.013Z,29.569
2022-10-18T20:20:19.997Z,29.570
2022-10-18T20:25:20.050Z,29.573
2022-10-18T20:30:17.023Z,29.575
2022-10-18T20:35:17.076Z,29.580
2022-10-18T20:40:20.277Z,29.585
2022-10-18T20:45:20.014Z,29.587
2022-10-18T20:50:17.086Z,29.588
2022-10-18T20:55:20.036Z,29.589
2022-10-18T21:00:17.074Z,29.588
2022-10-18T21:05:17.085Z,29.588
2022-10-18T21:10:20.042Z,29.585
2022-10-18T21:15:20.005Z,29.588
2022-10-18T21:20:20.026Z,29.588
2022-10-18T21:25:17.054Z,29.585
2022-10-18T21:30:17.076Z,29.584
2022-10-18T21:35:17.096Z,29.587
2022-10-18T21:40:20.101Z,29.592
2022-10-18T21:45:20.039Z,29.592
2022-10-18T21:50:20.006Z,29.594
2022-10-18T21:55:17.096Z,29.593
2022-10-18T22:00:17.093Z,29.595
2022-10-18T22:05:17.141Z,29.598
2022-10-18T22:10:17.104Z,29.599
2022-10-18T22:15:20.178Z,29.598
2022-10-18T22:20:20.075Z,29.598
2022-10-18T22:25:17.102Z,29.598
2022-10-18T22:30:17.106Z,29.600
2022-10-18T22:35:17.134Z,29.600
2022-10-18T22:40:20.111Z,29.602
2022-10-18T22:45:16.905Z,29.601
2022-10-18T22:50:20.095Z,29.604
2022-10-18T22:55:20.079Z,29.605
2022-10-18T23:00:17.152Z,29.608
2022-10-18T23:05:17.136Z,29.609
2022-10-18T23:10:17.087Z,29.610
2022-10-18T23:15:20.100Z,29.611
2022-10-18T23:20:20.112Z,29.614
2022-10-18T23:25:17.089Z,29.613
2022-10-18T23:30:20.108Z,29.609
2022-10-18T23:35:17.120Z,29.609
2022-10-18T23:40:20.098Z,29.613
2022-10-18T23:45:20.108Z,29.613
2022-10-18T23:50:20.053Z,29.610
2022-10-18T23:55:20.082Z,29.608
